createdAt,value
2018-09-17T00:00:43.070Z,52.30
2018-09-17T00:05:38.029Z,53.30
2018-09-17T00:08:05.608Z,52.60
2018-09-17T00:10:33.266Z,52.30
2018-09-17T00:13:00.817Z,52.50
2018-09-17T00:17:55.808Z,52.20
2018-09-17T00:20:23.424Z,52.60
2018-09-17T00:22:51.026Z,52.10
2018-09-17T00:27:46.604Z,52.90
2018-09-17T00:30:14.148Z,52.90
2018-09-17T00:32:41.690Z,52.60
2018-09-17T00:35:09.157Z,52.10
2018-09-17T00:37:36.843Z,51.90
2018-09-17T00:40:04.386Z,51.90
2018-09-17T00:42:31.996Z,52.10
2018-09-17T00:44:59.495Z,52.50
2018-09-17T00:47:26.948Z,52.60
2018-09-17T00:49:54.430Z,52.40
2018-09-17T00:52:21.858Z,52.40
2018-09-17T00:54:49.416Z,51.90
2018-09-17T00:57:17.048Z,52.30
2018-09-17T00:59:44.593Z,52.60
2018-09-17T01:02:12.160Z,52.80
2018-09-17T01:04:40.381Z,53.30
2018-09-17T01:07:07.907Z,53.80
2018-09-17T01:09:42.564Z,54.00
2018-09-17T01:14:38.263Z,54.40
2018-09-17T01:17:06.537Z,54.00
2018-09-17T01:19:34.780Z,54.40
2018-09-17T01:22:02.322Z,54.20
2018-09-17T01:24:29.904Z,54.40
2018-09-17T01:29:25.089Z,55.20
2018-09-17T01:34:20.300Z,54.40
2018-09-17T01:36:48.192Z,53.70
2018-09-17T01:39:16.343Z,53.70
2018-09-17T01:41:44.705Z,53.20
2018-09-17T01:44:12.244Z,53.70
2018-09-17T01:46:39.743Z,52.90
2018-09-17T01:49:07.395Z,53.30
2018-09-17T01:51:34.916Z,54.10
2018-09-17T01:54:02.521Z,54.40
2018-09-17T01:56:30.440Z,54.80
2018-09-17T02:03:53.978Z,53.90
2018-09-17T02:08:49.394Z,54.70
2018-09-17T02:11:16.837Z,55.00
2018-09-17T02:13:45.386Z,54.80
2018-09-17T02:16:12.868Z,54.50
2018-09-17T02:18:40.567Z,54.70
2018-09-17T02:21:08.124Z,54.60
2018-09-17T02:23:35.596Z,55.70
2018-09-17T02:26:03.172Z,55.70
2018-09-17T02:28:30.845Z,55.50
2018-09-17T02:30:58.458Z,55.60
2018-09-17T02:33:25.940Z,54.70
2018-09-17T02:35:54.205Z,54.80
2018-09-17T02:40:49.109Z,55.40
2018-09-17T02:43:16.637Z,55.90
2018-09-17T02:45:44.233Z,56.30
2018-09-17T02:48:11.911Z,55.60
2018-09-17T02:50:39.496Z,55.40
2018-09-17T02:53:07.079Z,55.60
2018-09-17T03:00:29.868Z,56.60
2018-09-17T03:05:24.862Z,56.20
2018-09-17T03:12:47.393Z,55.40
2018-09-17T03:15:26.381Z,55.40
2018-09-17T03:17:53.909Z,56.20
2018-09-17T03:20:21.384Z,56.40
2018-09-17T03:22:48.955Z,56.50
2018-09-17T03:25:16.366Z,56.50
2018-09-17T03:27:44.905Z,56.40
2018-09-17T03:32:39.992Z,57.00
2018-09-17T03:35:07.511Z,60.10
2018-09-17T03:37:35.015Z,57.80
2018-09-17T03:40:02.600Z,57.80
2018-09-17T03:42:30.104Z,65.60
2018-09-17T03:44:58.112Z,61.00
2018-09-17T03:47:25.971Z,62.50
2018-09-17T03:49:53.648Z,63.80
2018-09-17T03:52:21.819Z,59.70
2018-09-17T03:54:49.355Z,68.90
2018-09-17T03:57:17.185Z,64.70
2018-09-17T03:59:45.632Z,60.30
2018-09-17T04:02:13.301Z,57.40
2018-09-17T04:09:36.552Z,56.70
2018-09-17T04:12:04.853Z,58.40
2018-09-17T04:16:59.886Z,55.90
2018-09-17T04:19:28.292Z,69.90
2018-09-17T04:21:55.921Z,58.60
2018-09-17T04:24:23.468Z,62.80
2018-09-17T04:26:50.920Z,65.00
2018-09-17T04:29:18.404Z,68.10
2018-09-17T04:31:46.641Z,59.80
2018-09-17T04:34:14.249Z,60.00
2018-09-17T04:36:41.937Z,61.60
2018-09-17T04:39:11.312Z,61.60
2018-09-17T04:41:39.381Z,57.50
2018-09-17T04:44:06.910Z,57.40
2018-09-17T04:51:29.557Z,57.60
2018-09-17T04:53:57.021Z,58.60
2018-09-17T04:56:24.530Z,62.00
2018-09-17T04:58:52.101Z,62.50
2018-09-17T05:03:47.113Z,62.70
2018-09-17T05:06:14.785Z,60.20
2018-09-17T05:08:42.482Z,60.10
2018-09-17T05:13:38.645Z,59.50
2018-09-17T05:21:03.494Z,58.20
2018-09-17T05:23:31.181Z,75.00
2018-09-17T05:25:58.764Z,58.90
2018-09-17T05:28:26.264Z,60.20
2018-09-17T05:30:53.811Z,64.20
2018-09-17T05:33:21.360Z,58.30
2018-09-17T05:35:49.569Z,58.00
2018-09-17T05:38:17.338Z,65.60
2018-09-17T05:40:44.861Z,57.80
2018-09-17T05:45:40.115Z,65.80
2018-09-17T05:57:52.029Z,57.40
2018-09-17T06:00:19.597Z,58.40
2018-09-17T06:07:42.161Z,57.90
2018-09-17T06:10:13.741Z,73.80
2018-09-17T06:15:09.364Z,66.60
2018-09-17T06:17:37.121Z,60.10
2018-09-17T06:24:59.692Z,66.70
2018-09-17T06:27:27.208Z,61.20
2018-09-17T06:29:54.756Z,64.00
2018-09-17T06:32:22.276Z,58.50
2018-09-17T06:34:49.983Z,58.00
2018-09-17T06:37:17.553Z,75.40
2018-09-17T06:39:45.119Z,66.30
2018-09-17T06:47:07.779Z,56.90
2018-09-17T06:49:35.215Z,55.80
2018-09-17T06:52:02.703Z,56.50
2018-09-17T06:54:30.447Z,55.50
2018-09-17T06:59:26.206Z,54.90
2018-09-17T07:01:54.677Z,55.40
2018-09-17T07:04:22.230Z,54.80
2018-09-17T07:06:49.856Z,54.70
2018-09-17T07:09:17.751Z,54.80
2018-09-17T07:11:45.404Z,54.70
2018-09-17T07:16:41.072Z,55.20
2018-09-17T07:21:36.058Z,53.50
2018-09-17T07:24:03.586Z,53.10
2018-09-17T07:26:31.752Z,51.90
2018-09-17T07:29:00.064Z,52.60
2018-09-17T07:31:27.648Z,51.00
2018-09-17T07:33:55.125Z,50.10
2018-09-17T07:36:22.780Z,50.20
2018-09-17T07:38:50.762Z,49.20
2018-09-17T07:41:18.791Z,49.20
2018-09-17T07:46:14.362Z,48.90
2018-09-17T07:48:41.976Z,47.40
2018-09-17T07:51:09.592Z,47.90
2018-09-17T07:53:37.916Z,47.10
2018-09-17T08:01:03.405Z,46.70
2018-09-17T08:03:30.904Z,46.20
2018-09-17T08:05:59.200Z,46.50
2018-09-17T08:10:55.019Z,48.30
2018-09-17T08:13:22.633Z,45.20
2018-09-17T08:23:13.276Z,43.90
2018-09-17T08:25:41.377Z,43.60
2018-09-17T08:30:36.347Z,51.10
2018-09-17T08:42:56.100Z,46.90
2018-09-17T08:45:23.753Z,43.30
2018-09-17T08:47:51.362Z,49.30
2018-09-17T08:50:18.921Z,41.60
2018-09-17T08:57:53.239Z,49.40
2018-09-17T09:00:21.033Z,38.40
2018-09-17T09:03:53.016Z,40.30
2018-09-17T09:08:52.550Z,38.60
2018-09-17T09:11:21.634Z,37.10
2018-09-17T09:13:54.625Z,37.10
2018-09-17T09:16:23.373Z,37.30
2018-09-17T09:18:50.984Z,36.80
2018-09-17T09:23:46.121Z,34.90
2018-09-17T09:26:14.457Z,36.70
2018-09-17T09:28:42.550Z,35.90
2018-09-17T09:31:10.124Z,34.70
2018-09-17T09:33:37.724Z,34.80
2018-09-17T09:36:05.275Z,34.30
2018-09-17T09:38:33.284Z,35.60
2018-09-17T09:41:00.917Z,34.60
2018-09-17T09:43:29.060Z,33.20
2018-09-17T09:45:56.615Z,32.30
2018-09-17T09:53:19.088Z,32.50
2018-09-17T09:55:46.684Z,36.50
2018-09-17T09:58:14.315Z,35.60
2018-09-17T10:00:47.395Z,49.40
2018-09-17T10:03:16.984Z,31.50
2018-09-17T10:05:45.406Z,32.50
2018-09-17T10:08:12.887Z,32.50
2018-09-17T10:10:46.236Z,30.80
2018-09-17T10:13:19.461Z,30.40
2018-09-17T10:15:53.707Z,30.40
2018-09-17T10:18:26.925Z,30.40
2018-09-17T10:20:54.527Z,31.50
2018-09-17T10:23:21.942Z,30.70
2018-09-17T10:25:49.869Z,29.80
2018-09-17T10:28:17.477Z,29.50
2018-09-17T10:30:45.390Z,29.50
2018-09-17T10:33:13.056Z,29.70
2018-09-17T10:35:41.012Z,29.20
2018-09-17T10:40:35.959Z,28.90
2018-09-17T10:43:04.374Z,28.60
2018-09-17T10:45:32.136Z,28.60
2018-09-17T10:47:59.612Z,28.80
2018-09-17T10:50:27.827Z,28.90
2018-09-17T10:52:55.282Z,28.90
2018-09-17T10:55:22.751Z,29.30
2018-09-17T10:57:50.422Z,29.40
2018-09-17T11:00:18.004Z,29.40
2018-09-17T11:02:45.461Z,28.40
2018-09-17T11:05:13.781Z,28.30
2018-09-17T11:07:41.373Z,28.90
2018-09-17T11:10:09.398Z,29.00
2018-09-17T11:12:37.031Z,28.40
2018-09-17T11:15:04.636Z,28.30
2018-09-17T11:17:32.419Z,29.30
2018-09-17T11:19:59.920Z,29.50
2018-09-17T11:22:27.455Z,29.10
2018-09-17T11:24:55.203Z,29.20
2018-09-17T11:27:22.676Z,28.70
2018-09-17T11:32:17.820Z,28.60
2018-09-17T11:34:45.833Z,29.60
2018-09-17T11:39:41.453Z,29.30
2018-09-17T11:42:09.017Z,29.30
2018-09-17T11:44:38.331Z,29.40
2018-09-17T11:47:17.641Z,29.20
2018-09-17T11:49:45.320Z,29.20
2018-09-17T11:52:12.871Z,29.20
2018-09-17T11:57:07.746Z,29.30
2018-09-17T11:59:36.259Z,29.30
2018-09-17T12:02:04.399Z,38.20
2018-09-17T12:04:37.939Z,29.80
2018-09-17T12:09:38.612Z,29.70
2018-09-17T12:12:06.241Z,29.90
2018-09-17T12:14:34.724Z,37.10
2018-09-17T12:19:29.892Z,37.50
2018-09-17T12:24:25.046Z,30.30
2018-09-17T12:26:53.462Z,30.70
2018-09-17T12:29:20.941Z,30.30
2018-09-17T12:31:48.723Z,30.80
2018-09-17T12:34:16.356Z,31.70
2018-09-17T12:39:12.008Z,34.40
2018-09-17T12:41:39.676Z,42.10
2018-09-17T12:44:07.291Z,31.00
2018-09-17T12:46:34.842Z,36.90
2018-09-17T12:49:02.309Z,36.50
2018-09-17T13:03:48.390Z,39.20
2018-09-17T13:11:10.743Z,31.70
2018-09-17T13:13:39.224Z,31.70
2018-09-17T13:16:07.449Z,32.10
2018-09-17T13:30:53.452Z,35.00
2018-09-17T13:35:48.633Z,36.30
2018-09-17T13:38:16.264Z,34.40
2018-09-17T13:40:43.926Z,32.50
2018-09-17T13:43:12.127Z,32.00
2018-09-17T13:45:40.040Z,32.50
2018-09-17T13:53:02.993Z,30.40
2018-09-17T13:55:30.678Z,30.00
2018-09-17T13:57:58.584Z,31.70
2018-09-17T14:00:26.179Z,31.20
2018-09-17T14:02:53.731Z,31.30
2018-09-17T14:05:21.799Z,31.30
2018-09-17T14:07:50.584Z,31.60
2018-09-17T14:10:19.329Z,31.30
2018-09-17T14:12:47.316Z,31.20
2018-09-17T14:15:15.133Z,30.90
2018-09-17T14:17:43.285Z,30.50
2018-09-17T14:22:38.453Z,30.60
2018-09-17T14:27:34.517Z,28.50
2018-09-17T14:30:02.112Z,29.20
2018-09-17T14:32:35.271Z,29.70
2018-09-17T14:35:03.561Z,28.80
2018-09-17T14:40:00.913Z,28.80
2018-09-17T14:42:28.708Z,28.20
2018-09-17T14:44:56.233Z,28.00
2018-09-17T14:49:51.662Z,29.70
2018-09-17T14:52:20.251Z,31.10
2018-09-17T14:54:47.775Z,32.10
2018-09-17T14:57:15.339Z,33.00
2018-09-17T14:59:43.230Z,33.30
2018-09-17T15:02:14.089Z,33.10
2018-09-17T15:04:41.751Z,33.00
2018-09-17T15:07:09.283Z,33.70
2018-09-17T15:12:05.495Z,34.50
2018-09-17T15:14:33.145Z,34.90
2018-09-17T15:21:56.197Z,34.50
2018-09-17T15:26:52.242Z,43.10
2018-09-17T15:36:45.036Z,35.70
2018-09-17T15:39:14.336Z,45.90
2018-09-17T15:41:42.467Z,46.80
2018-09-17T15:44:12.371Z,38.40
2018-09-17T15:49:07.777Z,37.30
2018-09-17T15:51:35.335Z,37.30
2018-09-17T15:56:30.698Z,41.00
2018-09-17T15:58:58.376Z,44.40
2018-09-17T16:01:26.064Z,36.70
2018-09-17T16:03:53.565Z,41.90
2018-09-17T16:06:21.129Z,36.70
2018-09-17T16:11:16.328Z,37.00
2018-09-17T16:13:44.083Z,44.40
2018-09-17T16:16:11.595Z,39.40
2018-09-17T16:18:39.746Z,43.70
2018-09-17T16:21:08.081Z,39.90
2018-09-17T16:26:04.253Z,46.40
2018-09-17T16:28:31.910Z,36.20
2018-09-17T16:30:59.413Z,35.60
2018-09-17T16:35:54.526Z,41.90
2018-09-17T16:38:22.179Z,43.70
2018-09-17T16:40:49.705Z,37.20
2018-09-17T16:43:17.248Z,42.20
2018-09-17T16:48:12.237Z,37.80
2018-09-17T16:50:39.796Z,38.60
2018-09-17T16:58:02.227Z,41.80
2018-09-17T17:00:29.857Z,38.50
2018-09-17T17:05:25.056Z,36.90
2018-09-17T17:12:53.147Z,38.10
2018-09-17T17:15:28.139Z,44.20
2018-09-17T17:17:56.970Z,41.30
2018-09-17T17:22:52.803Z,38.70
2018-09-17T17:27:51.243Z,43.20
2018-09-17T17:40:12.404Z,40.30
2018-09-17T17:44:45.398Z,41.00
2018-09-17T17:49:40.782Z,41.90
2018-09-17T18:02:03.224Z,42.40
2018-09-17T18:04:34.024Z,42.70
2018-09-17T18:07:03.280Z,42.60
2018-09-17T18:09:31.236Z,42.30
2018-09-17T18:11:58.992Z,42.40
2018-09-17T18:14:27.468Z,42.80
2018-09-17T18:16:55.314Z,43.30
2018-09-17T18:19:23.955Z,42.90
2018-09-17T18:21:54.260Z,42.80
2018-09-17T18:24:23.300Z,43.00
2018-09-17T18:26:50.904Z,42.80
2018-09-17T18:29:19.255Z,42.70
2018-09-17T18:31:46.833Z,42.80
2018-09-17T18:34:15.820Z,42.70
2018-09-17T18:36:45.928Z,42.70
2018-09-17T18:39:18.731Z,42.80
2018-09-17T18:44:16.126Z,42.90
2018-09-17T18:49:16.583Z,43.50
2018-09-17T18:51:45.699Z,43.40
2018-09-17T18:54:13.295Z,43.30
2018-09-17T18:56:41.096Z,43.40
2018-09-17T18:59:08.639Z,43.40
2018-09-17T19:01:38.915Z,43.30
2018-09-17T19:04:06.725Z,43.30
2018-09-17T19:06:35.742Z,43.40
2018-09-17T19:11:33.671Z,43.20
2018-09-17T19:14:07.370Z,43.30
2018-09-17T19:16:41.545Z,43.20
2018-09-17T19:19:09.406Z,43.50
2018-09-17T19:21:42.925Z,43.10
2018-09-17T19:26:39.633Z,43.80
2018-09-17T19:29:13.786Z,43.60
2018-09-17T19:31:42.173Z,44.00
2018-09-17T19:34:09.931Z,44.10
2018-09-17T19:36:37.445Z,44.20
2018-09-17T19:41:43.625Z,44.30
2018-09-17T19:44:11.594Z,44.30
2018-09-17T19:46:39.282Z,44.40
2018-09-17T19:49:07.538Z,44.20
2018-09-17T19:54:10.675Z,44.40
2018-09-17T19:56:39.666Z,44.60
2018-09-17T19:59:13.257Z,45.00
2018-09-17T20:04:14.778Z,45.00
2018-09-17T20:09:10.982Z,44.70
2018-09-17T20:14:06.864Z,45.30
2018-09-17T20:16:34.867Z,45.40
2018-09-17T20:19:02.988Z,45.60
2018-09-17T20:21:30.830Z,46.30
2018-09-17T20:23:58.887Z,45.40
2018-09-17T20:26:26.699Z,45.90
2018-09-17T20:31:22.254Z,46.30
2018-09-17T20:33:49.979Z,46.30
2018-09-17T20:36:17.689Z,46.20
2018-09-17T20:38:45.816Z,46.20
2018-09-17T20:41:13.422Z,46.20
2018-09-17T20:43:41.446Z,46.20
2018-09-17T20:46:09.585Z,46.20
2018-09-17T20:51:05.444Z,46.00
2018-09-17T20:56:02.140Z,49.80
2018-09-17T20:58:29.911Z,46.10
2018-09-17T21:00:58.065Z,46.70
2018-09-17T21:03:25.837Z,46.10
2018-09-17T21:15:45.512Z,46.70
2018-09-17T21:18:13.251Z,47.10
2018-09-17T21:20:40.801Z,47.40
2018-09-17T21:23:08.316Z,47.20
2018-09-17T21:25:35.946Z,47.00
2018-09-17T21:30:32.971Z,46.90
2018-09-17T21:33:02.123Z,47.10
2018-09-17T21:35:29.681Z,47.20
2018-09-17T21:40:25.812Z,46.50
2018-09-17T21:45:20.981Z,46.80
2018-09-17T21:50:16.045Z,47.00
2018-09-17T21:52:43.652Z,46.80
2018-09-17T21:55:11.247Z,46.80
2018-09-17T21:57:38.781Z,46.90
2018-09-17T22:00:07.774Z,46.90
2018-09-17T22:02:35.365Z,47.00
2018-09-17T22:05:02.957Z,46.90
2018-09-17T22:07:30.524Z,46.70
2018-09-17T22:09:58.036Z,47.30
2018-09-17T22:12:25.635Z,47.20
2018-09-17T22:14:53.124Z,47.40
2018-09-17T22:17:20.696Z,47.40
2018-09-17T22:19:48.218Z,47.90
2018-09-17T22:22:15.892Z,46.70
2018-09-17T22:24:43.409Z,46.70
2018-09-17T22:27:10.982Z,47.00
2018-09-17T22:29:38.481Z,46.50
2018-09-17T22:32:05.991Z,47.00
2018-09-17T22:34:33.557Z,47.10
2018-09-17T22:37:01.141Z,47.70
2018-09-17T22:39:30.507Z,47.60
2018-09-17T22:41:58.099Z,47.70
2018-09-17T22:46:53.169Z,47.70
2018-09-17T22:51:48.347Z,48.70
2018-09-17T22:56:43.468Z,51.00
2018-09-17T22:59:10.945Z,52.30
2018-09-17T23:01:38.461Z,48.20
2018-09-17T23:04:06.013Z,51.70
2018-09-17T23:06:33.619Z,53.90
2018-09-17T23:09:01.703Z,48.20
2018-09-17T23:11:30.156Z,52.50
2018-09-17T23:16:25.075Z,49.30
2018-09-17T23:18:52.596Z,48.00
2018-09-17T23:21:20.675Z,47.80
2018-09-17T23:23:48.453Z,48.40
2018-09-17T23:26:16.701Z,52.20
2018-09-17T23:28:44.279Z,48.10
2018-09-17T23:31:11.856Z,48.70
2018-09-17T23:33:39.452Z,51.20
2018-09-17T23:36:06.955Z,52.90
2018-09-17T23:38:34.485Z,50.90
2018-09-17T23:41:02.020Z,50.50
2018-09-17T23:43:29.568Z,51.30
2018-09-17T23:45:57.068Z,49.80
2018-09-17T23:48:24.476Z,51.80
2018-09-17T23:50:51.992Z,51.70
2018-09-17T23:53:19.533Z,52.30
2018-09-17T23:55:47.038Z,50.90
2018-09-17T23:58:14.537Z,51.00
